Terminal Aerodrome Forecast
Issued by NWS

Home | Current Version | Previous Version | Text Only | Print | Product List | Glossary On
Versions: 1 2 3 4 5 6 7 8 9 10 11 12 13 14 15 16 17 18 19 20 21 22 23 24 25 26
000
FTUS43 KOAX 220039 AAA
TAFSNY
TAF AMD
KSNY 220039Z 2201/2224 01020G30KT 2SM -RA BR BKN007 OVC012
     FM221000 35020G30KT P6SM VCSH SCT007 OVC020
     FM222000 01013KT P6SM SCT020 OVC050=

USA.gov is the U.S. government's official web portal to all federal, state and local government web resources and services.